createdAt,value
2022-11-23T00:02:16.367Z,87.60
2022-11-23T00:06:21.733Z,87.60
2022-11-23T00:10:25.340Z,87.60
2022-11-23T00:14:28.860Z,87.50
2022-11-23T00:18:32.386Z,87.60
2022-11-23T00:22:36.521Z,87.60
2022-11-23T00:26:40.026Z,87.60
2022-11-23T00:30:48.601Z,87.60
2022-11-23T00:34:52.198Z,87.60
2022-11-23T00:38:55.834Z,87.60
2022-11-23T00:42:59.322Z,87.60
2022-11-23T00:47:02.784Z,87.60
2022-11-23T00:51:08.469Z,87.60
2022-11-23T00:55:11.875Z,87.60
2022-11-23T00:59:15.397Z,87.60
2022-11-23T01:03:19.724Z,87.50
2022-11-23T01:07:23.251Z,87.30
2022-11-23T01:11:29.123Z,87.30
2022-11-23T01:15:32.758Z,87.30
2022-11-23T01:19:36.410Z,87.20
2022-11-23T01:23:41.611Z,87.30
2022-11-23T01:27:47.079Z,87.30
2022-11-23T01:31:50.487Z,87.40
2022-11-23T01:35:55.247Z,87.40
2022-11-23T01:39:58.763Z,87.30
2022-11-23T01:44:21.478Z,87.10
2022-11-23T01:48:54.918Z,87.00
2022-11-23T01:52:59.383Z,87.00
2022-11-23T01:57:09.991Z,86.80
2022-11-23T02:01:15.450Z,86.90
2022-11-23T02:05:21.963Z,87.00
2022-11-23T02:09:25.739Z,87.00
2022-11-23T02:13:29.987Z,86.90
2022-11-23T02:17:34.610Z,86.80
2022-11-23T02:21:38.364Z,87.00
2022-11-23T02:25:45.530Z,87.10
2022-11-23T02:29:51.101Z,87.10
2022-11-23T02:33:56.682Z,87.00
2022-11-23T02:38:02.793Z,87.00
2022-11-23T02:42:06.970Z,86.80
2022-11-23T02:46:11.147Z,86.80
2022-11-23T02:50:15.058Z,86.70
2022-11-23T02:54:20.341Z,86.60
2022-11-23T02:58:23.950Z,86.70
2022-11-23T03:02:27.870Z,86.70
2022-11-23T03:06:31.488Z,86.50
2022-11-23T03:10:35.540Z,86.80
2022-11-23T03:14:39.460Z,86.80
2022-11-23T03:18:43.577Z,86.60
2022-11-23T03:22:47.530Z,86.50
2022-11-23T03:26:53.459Z,86.50
2022-11-23T03:30:57.305Z,86.50
2022-11-23T03:35:02.974Z,86.50
2022-11-23T03:39:07.225Z,86.10
2022-11-23T03:43:38.370Z,86.00
2022-11-23T03:47:41.838Z,85.80
2022-11-23T03:51:45.314Z,85.60
2022-11-23T03:55:49.025Z,85.50
2022-11-23T03:59:53.752Z,85.70
2022-11-23T04:03:57.418Z,85.80
2022-11-23T04:08:29.884Z,85.70
2022-11-23T04:12:35.218Z,85.60
2022-11-23T04:16:38.913Z,85.70
2022-11-23T04:20:42.613Z,85.40
2022-11-23T04:24:46.477Z,85.60
2022-11-23T04:28:49.906Z,85.50
2022-11-23T04:32:54.275Z,85.40
2022-11-23T04:36:59.985Z,85.20
2022-11-23T04:41:08.887Z,85.00
2022-11-23T04:45:12.768Z,85.20
2022-11-23T04:49:17.355Z,85.30
2022-11-23T04:53:20.820Z,85.20
2022-11-23T04:57:24.466Z,85.10
2022-11-23T05:01:29.020Z,85.30
2022-11-23T05:05:52.999Z,85.50
2022-11-23T05:09:56.532Z,85.50
2022-11-23T05:14:00.219Z,85.20
2022-11-23T05:18:07.798Z,85.30
2022-11-23T05:22:12.664Z,85.10
2022-11-23T05:26:17.622Z,85.40
2022-11-23T05:30:21.622Z,85.50
2022-11-23T05:34:25.927Z,85.50
2022-11-23T05:38:29.456Z,85.60
2022-11-23T05:42:36.694Z,85.70
2022-11-23T05:46:47.620Z,85.60
2022-11-23T05:50:52.221Z,85.50
2022-11-23T05:55:05.274Z,85.60
2022-11-23T05:59:09.350Z,85.70
2022-11-23T06:03:16.925Z,85.70
2022-11-23T06:07:21.529Z,85.70
2022-11-23T06:11:37.417Z,85.60
2022-11-23T06:15:48.524Z,85.50
2022-11-23T06:19:58.275Z,85.70
2022-11-23T06:24:01.742Z,86.00
2022-11-23T06:28:08.452Z,86.10
2022-11-23T06:32:18.404Z,86.50
2022-11-23T06:36:22.021Z,87.10
2022-11-23T06:40:27.769Z,87.70
2022-11-23T06:44:31.882Z,88.10
2022-11-23T06:48:35.879Z,88.30
2022-11-23T06:52:40.326Z,88.50
2022-11-23T06:56:44.021Z,88.80
2022-11-23T07:00:48.321Z,89.30
2022-11-23T07:04:55.620Z,89.90
2022-11-23T07:08:59.109Z,90.20
2022-11-23T07:13:20.906Z,90.20
2022-11-23T07:17:25.409Z,90.10
2022-11-23T07:21:29.512Z,90.10
2022-11-23T07:25:36.829Z,89.80
2022-11-23T07:29:40.801Z,89.60
2022-11-23T07:33:45.940Z,89.70
2022-11-23T07:37:49.713Z,89.90
2022-11-23T07:42:05.242Z,89.70
2022-11-23T07:43:59.451Z,95.50
2022-11-23T07:46:16.723Z,89.60
2022-11-23T07:48:09.413Z,95.50
2022-11-23T07:50:20.200Z,89.40
2022-11-23T07:52:13.386Z,95.60
2022-11-23T07:54:23.993Z,89.40
2022-11-23T07:56:24.383Z,95.50
2022-11-23T07:58:27.633Z,90.00
2022-11-23T08:00:54.376Z,95.80
2022-11-23T08:02:31.253Z,89.90
2022-11-23T08:04:58.113Z,96.30
2022-11-23T08:06:34.827Z,89.60
2022-11-23T08:09:02.013Z,96.30
2022-11-23T08:10:44.159Z,89.40
2022-11-23T08:13:07.582Z,96.30
2022-11-23T08:14:52.549Z,89.40
2022-11-23T08:17:11.494Z,96.20
2022-11-23T08:18:55.966Z,88.90
2022-11-23T08:21:15.364Z,96.20
2022-11-23T08:22:59.617Z,89.30
2022-11-23T08:25:19.192Z,96.30
2022-11-23T08:27:04.605Z,89.60
2022-11-23T08:29:23.166Z,96.20
2022-11-23T08:31:11.633Z,89.40
2022-11-23T08:33:28.834Z,96.10
2022-11-23T08:35:15.445Z,88.60
2022-11-23T08:37:32.544Z,96.10
2022-11-23T08:39:19.674Z,87.60
2022-11-23T08:41:36.364Z,96.30
2022-11-23T08:43:23.100Z,88.40
2022-11-23T08:45:40.245Z,96.40
2022-11-23T08:47:27.478Z,88.80
2022-11-23T08:49:44.933Z,96.20
2022-11-23T08:51:30.960Z,88.20
2022-11-23T08:53:51.952Z,96.30
2022-11-23T08:55:34.671Z,88.10
2022-11-23T08:57:58.358Z,96.60
2022-11-23T08:59:38.214Z,86.40
2022-11-23T09:02:09.442Z,96.70
2022-11-23T09:03:42.922Z,84.70
2022-11-23T09:07:46.675Z,85.10
2022-11-23T09:11:50.236Z,85.80
2022-11-23T09:16:01.205Z,84.80
2022-11-23T09:20:05.258Z,83.70
2022-11-23T09:24:12.460Z,81.90
2022-11-23T09:28:16.850Z,80.90
2022-11-23T09:32:20.321Z,79.70
2022-11-23T09:36:23.813Z,79.20
2022-11-23T09:40:40.751Z,78.20
2022-11-23T09:45:04.099Z,76.40
2022-11-23T09:49:12.922Z,76.60
2022-11-23T09:53:21.567Z,75.40
2022-11-23T09:57:29.830Z,75.80
2022-11-23T10:01:33.515Z,76.80
2022-11-23T10:05:39.897Z,77.10
2022-11-23T10:10:06.171Z,75.60
2022-11-23T10:14:30.836Z,75.70
2022-11-23T10:18:48.874Z,75.60
2022-11-23T10:23:00.658Z,75.60
2022-11-23T10:27:14.034Z,75.40
2022-11-23T10:31:22.774Z,75.40
2022-11-23T10:35:33.063Z,75.00
2022-11-23T10:39:36.763Z,74.40
2022-11-23T10:44:07.726Z,74.40
2022-11-23T10:48:11.376Z,74.10
2022-11-23T10:52:31.843Z,74.50
2022-11-23T10:56:35.567Z,75.00
2022-11-23T11:00:39.199Z,73.60
2022-11-23T11:04:43.715Z,72.70
2022-11-23T11:08:55.035Z,73.20
2022-11-23T11:12:58.511Z,74.20
2022-11-23T11:17:02.057Z,74.90
2022-11-23T11:21:25.925Z,74.90
2022-11-23T11:25:36.585Z,75.30
2022-11-23T11:29:49.386Z,75.40
2022-11-23T11:34:36.061Z,74.40
2022-11-23T11:38:41.903Z,74.80
2022-11-23T11:42:58.255Z,74.20
2022-11-23T11:47:23.083Z,72.70
2022-11-23T11:51:40.681Z,72.90
2022-11-23T11:55:53.736Z,74.30
2022-11-23T11:59:58.528Z,74.20
2022-11-23T12:04:18.174Z,72.90
2022-11-23T12:08:40.986Z,73.70
2022-11-23T12:12:44.887Z,73.20
2022-11-23T12:17:37.701Z,73.30
2022-11-23T12:21:56.298Z,73.70
2022-11-23T12:26:17.853Z,72.50
2022-11-23T12:30:27.265Z,71.70
2022-11-23T12:34:42.726Z,71.70
2022-11-23T12:38:56.399Z,72.40
2022-11-23T12:43:06.861Z,72.00
2022-11-23T12:47:25.890Z,71.70
2022-11-23T12:51:46.330Z,71.50
2022-11-23T12:55:55.913Z,71.40
2022-11-23T13:00:21.002Z,71.40
2022-11-23T13:04:51.180Z,70.90
2022-11-23T13:09:18.666Z,70.90
2022-11-23T13:13:44.385Z,71.20
2022-11-23T13:18:28.137Z,70.90
2022-11-23T13:22:34.674Z,70.40
2022-11-23T13:26:40.610Z,70.60
2022-11-23T13:31:17.182Z,71.00
2022-11-23T13:35:31.698Z,69.90
2022-11-23T13:39:47.941Z,69.50
2022-11-23T13:43:52.493Z,69.30
2022-11-23T13:48:19.317Z,69.50
2022-11-23T13:52:37.815Z,69.10
2022-11-23T13:56:43.652Z,69.20
2022-11-23T14:00:58.104Z,69.00
2022-11-23T14:05:31.595Z,69.00
2022-11-23T14:09:55.288Z,68.50
2022-11-23T14:14:03.284Z,68.30
2022-11-23T14:18:25.714Z,68.80
2022-11-23T14:22:43.132Z,68.80
2022-11-23T14:26:50.920Z,68.70
2022-11-23T14:30:57.455Z,68.60
2022-11-23T14:35:24.585Z,68.60
2022-11-23T14:39:28.195Z,68.60
2022-11-23T14:43:33.566Z,68.20
2022-11-23T14:47:37.012Z,67.60
2022-11-23T14:51:45.261Z,67.80
2022-11-23T14:55:50.424Z,68.40
2022-11-23T15:00:00.347Z,69.10
2022-11-23T15:04:21.593Z,69.30
2022-11-23T15:08:30.422Z,69.10
2022-11-23T15:12:52.499Z,69.50
2022-11-23T15:16:56.100Z,69.50
2022-11-23T15:21:26.935Z,69.40
2022-11-23T15:25:32.070Z,69.30
2022-11-23T15:29:38.871Z,69.20
2022-11-23T15:33:50.760Z,69.10
2022-11-23T15:37:54.644Z,69.00
2022-11-23T15:41:58.110Z,69.00
2022-11-23T15:46:13.076Z,69.20
2022-11-23T15:50:16.817Z,69.60
2022-11-23T15:54:25.873Z,69.90
2022-11-23T15:58:30.319Z,70.00
2022-11-23T16:02:33.874Z,70.10
2022-11-23T16:06:40.115Z,70.40
2022-11-23T16:10:55.330Z,70.50
2022-11-23T16:15:22.867Z,70.60
2022-11-23T16:19:32.269Z,70.60
2022-11-23T16:23:56.778Z,70.80
2022-11-23T16:28:01.286Z,71.20
2022-11-23T16:32:08.120Z,71.40
2022-11-23T16:36:11.961Z,71.40
2022-11-23T16:40:15.943Z,71.50
2022-11-23T16:44:20.055Z,71.60
2022-11-23T16:48:26.210Z,71.60
2022-11-23T16:52:29.650Z,71.60
2022-11-23T16:56:33.155Z,71.80
2022-11-23T17:00:36.932Z,71.90
2022-11-23T17:04:40.736Z,72.10
2022-11-23T17:08:48.385Z,72.30
2022-11-23T17:12:56.307Z,72.40
2022-11-23T17:17:02.238Z,72.80
2022-11-23T17:21:06.074Z,72.80
2022-11-23T17:25:14.970Z,72.90
2022-11-23T17:29:20.404Z,73.00
2022-11-23T17:33:23.790Z,73.10
2022-11-23T17:37:27.472Z,73.10
2022-11-23T17:41:30.881Z,73.20
2022-11-23T17:45:34.872Z,73.30
2022-11-23T17:49:38.616Z,73.50
2022-11-23T17:53:41.995Z,73.70
2022-11-23T17:57:45.548Z,73.90
2022-11-23T18:01:49.310Z,74.10
2022-11-23T18:05:53.172Z,74.20
2022-11-23T18:09:56.739Z,74.20
2022-11-23T18:14:00.282Z,74.20
2022-11-23T18:18:05.034Z,74.20
2022-11-23T18:22:08.609Z,74.10
2022-11-23T18:26:16.885Z,74.20
2022-11-23T18:30:20.416Z,74.20
2022-11-23T18:34:25.482Z,74.10
2022-11-23T18:38:29.309Z,74.10
2022-11-23T18:42:32.778Z,74.00
2022-11-23T18:46:36.256Z,74.00
2022-11-23T18:50:40.276Z,74.00
2022-11-23T18:54:46.150Z,74.00
2022-11-23T18:58:51.681Z,74.00
2022-11-23T19:02:57.410Z,74.10
2022-11-23T19:07:00.928Z,74.10
2022-11-23T19:11:09.199Z,74.10
2022-11-23T19:15:13.377Z,73.90
2022-11-23T19:19:18.343Z,73.70
2022-11-23T19:23:23.549Z,73.80
2022-11-23T19:27:36.059Z,73.90
2022-11-23T19:31:40.021Z,74.00
2022-11-23T19:35:43.645Z,74.10
2022-11-23T19:39:47.415Z,74.10
2022-11-23T19:43:57.627Z,74.10
2022-11-23T19:48:01.085Z,74.10
2022-11-23T19:52:06.020Z,74.00
2022-11-23T19:56:20.666Z,73.90
2022-11-23T20:00:24.192Z,74.00
2022-11-23T20:04:29.329Z,74.20
2022-11-23T20:08:32.855Z,74.30
2022-11-23T20:12:36.418Z,74.50
2022-11-23T20:16:40.309Z,74.60
2022-11-23T20:20:50.254Z,74.70
2022-11-23T20:24:53.783Z,74.80
2022-11-23T20:28:58.804Z,74.80
2022-11-23T20:33:03.556Z,74.80
2022-11-23T20:37:08.963Z,74.70
2022-11-23T20:41:22.115Z,74.80
2022-11-23T20:45:31.224Z,74.80
2022-11-23T20:49:43.600Z,74.80
2022-11-23T20:53:51.742Z,74.90
2022-11-23T20:57:55.632Z,74.90
2022-11-23T21:01:59.128Z,74.90
2022-11-23T21:06:10.694Z,74.90
2022-11-23T21:10:34.290Z,74.90
2022-11-23T21:14:40.083Z,74.90
2022-11-23T21:18:45.282Z,74.90
2022-11-23T21:22:49.544Z,74.90
2022-11-23T21:26:53.860Z,75.00
2022-11-23T21:31:09.591Z,75.00
2022-11-23T21:35:14.968Z,75.00
2022-11-23T21:39:20.758Z,75.00
2022-11-23T21:43:26.313Z,75.10
2022-11-23T21:47:31.107Z,75.10
2022-11-23T21:51:36.692Z,75.20
2022-11-23T21:55:41.735Z,75.20
2022-11-23T21:59:49.910Z,75.20
2022-11-23T22:03:59.709Z,75.30
2022-11-23T22:08:28.227Z,75.20
2022-11-23T22:12:27.730Z,75.20
2022-11-23T22:16:35.173Z,75.20
2022-11-23T22:20:38.934Z,75.10
2022-11-23T22:24:42.526Z,75.00
2022-11-23T22:28:48.255Z,74.90
2022-11-23T22:32:51.794Z,75.00
2022-11-23T22:36:55.219Z,75.00
2022-11-23T22:41:07.493Z,75.20
2022-11-23T22:45:11.775Z,75.20
2022-11-23T22:49:16.113Z,75.30
2022-11-23T22:53:19.583Z,75.30
2022-11-23T22:57:23.022Z,75.40
2022-11-23T23:01:28.923Z,75.40
2022-11-23T23:05:33.013Z,75.50
2022-11-23T23:09:36.563Z,75.50
2022-11-23T23:13:40.445Z,75.50
2022-11-23T23:17:44.358Z,75.50
2022-11-23T23:21:47.826Z,75.60
2022-11-23T23:25:54.564Z,75.70
2022-11-23T23:29:59.932Z,75.70
2022-11-23T23:34:04.218Z,75.60
2022-11-23T23:38:08.267Z,75.80
2022-11-23T23:42:11.722Z,75.70
2022-11-23T23:46:15.606Z,75.60
2022-11-23T23:50:19.080Z,75.70
2022-11-23T23:54:22.574Z,75.80
2022-11-23T23:58:26.336Z,75.80
